Time;durP1;ratioP1;P1;durP2;ratioP2;P2;SDS_P1;SDS_P2;PMS_P1;PMS_P2;Temp;Humidity;BMP_temperature;BMP_pressure;BME280_temperature;BME280_humidity;BME280_pressure;Samples;Min_cycle;Max_cycle;Signal;HPM_P1;HPM_P2
2022/05/23 00:00:58;;;;;;;;;;;20.20;99.90;;;;;;5096281;28;20043;-58
2022/05/23 00:03:24;;;;;;;1.20;1.10;;;20.20;99.90;;;;;;5111221;28;19924;-58
2022/05/23 00:05:50;;;;;;;1.30;1.05;;;20.20;99.90;;;;;;5113776;28;20058;-59
2022/05/23 00:08:15;;;;;;;;;;;20.20;99.90;;;;;;5113187;28;20051;-59
2022/05/23 00:10:41;;;;;;;1.98;1.05;;;20.20;99.90;;;;;;5113041;28;19928;-58
2022/05/23 00:13:07;;;;;;;;;;;20.20;99.90;;;;;;5112734;28;20056;-59
2022/05/23 00:15:32;;;;;;;0.90;0.90;;;20.20;99.90;;;;;;5113475;28;19920;-59
2022/05/23 00:17:58;;;;;;;;;;;20.20;99.90;;;;;;5112528;28;20082;-59
2022/05/23 00:20:26;;;;;;;1.00;1.00;;;20.20;99.90;;;;;;5112106;28;19920;-59
2022/05/23 00:22:52;;;;;;;1.67;1.10;;;20.20;99.90;;;;;;5112729;28;20312;-58
2022/05/23 00:25:18;;;;;;;;;;;20.20;99.90;;;;;;5113320;28;20108;-59
2022/05/23 00:27:46;;;;;;;0.90;0.90;;;20.20;99.90;;;;;;5112919;28;19946;-60
2022/05/23 00:30:18;;;;;;;1.13;0.98;;;20.20;99.90;;;;;;5112416;28;20055;-59
2022/05/23 00:35:30;;;;;;;1.20;0.93;;;20.20;99.90;;;;;;5089914;28;20087;-60
2022/05/23 00:37:56;;;;;;;;;;;20.10;99.90;;;;;;5112988;28;20059;-58
2022/05/23 00:40:42;;;;;;;1.33;0.90;;;20.10;99.90;;;;;;5112629;28;19924;-58
2022/05/23 00:43:20;;;;;;;0.80;0.80;;;20.10;99.90;;;;;;5112061;28;20108;-59
2022/05/23 00:45:54;;;;;;;2.15;1.10;;;20.10;99.90;;;;;;5112884;28;20062;-59
2022/05/23 00:48:23;;;;;;;1.17;0.95;;;20.10;99.90;;;;;;5092209;28;20051;-59
2022/05/23 00:51:01;;;;;;;1.20;1.10;;;20.10;99.90;;;;;;5112896;28;20104;-59
2022/05/23 00:53:31;;;;;;;0.90;0.88;;;20.10;99.90;;;;;;5112235;28;20223;-59
2022/05/23 00:55:57;;;;;;;1.15;0.77;;;20.10;99.90;;;;;;5112671;28;20051;-59
2022/05/23 00:58:33;;;;;;;1.25;1.00;;;20.10;99.90;;;;;;5111307;28;20077;-59
2022/05/23 01:01:05;;;;;;;2.40;1.15;;;20.10;99.90;;;;;;5112851;28;20051;-58
2022/05/23 01:03:31;;;;;;;1.85;1.00;;;20.10;99.90;;;;;;5110186;28;20125;-59
2022/05/23 01:05:56;;;;;;;;;;;20.10;99.90;;;;;;5113039;28;20512;-59
2022/05/23 01:08:23;;;;;;;1.05;0.88;;;20.10;99.90;;;;;;5112224;28;19923;-58
2022/05/23 01:10:49;;;;;;;1.90;1.13;;;20.10;99.90;;;;;;5112417;28;20134;-59
2022/05/23 01:13:16;;;;;;;1.42;1.00;;;20.10;99.90;;;;;;5110730;28;20408;-59
2022/05/23 01:15:47;;;;;;;0.95;0.90;;;20.10;99.90;;;;;;5112294;28;20148;-59
2022/05/23 01:18:13;;;;;;;1.48;0.90;;;20.10;99.90;;;;;;5092120;28;20085;-58
2022/05/23 01:20:40;;;;;;;1.23;1.13;;;20.10;99.90;;;;;;5094392;28;20465;-59
2022/05/23 01:23:30;;;;;;;0.90;0.90;;;20.10;99.90;;;;;;5094018;28;20083;-58
2022/05/23 01:25:56;;;;;;;0.85;0.85;;;20.10;99.90;;;;;;5112304;28;20070;-59
2022/05/23 01:28:21;;;;;;;;;;;20.10;99.90;;;;;;5091214;28;20385;-59
2022/05/23 01:30:47;;;;;;;1.05;0.85;;;20.10;99.90;;;;;;5112108;28;19973;-59
2022/05/23 01:33:13;;;;;;;;;;;20.10;99.90;;;;;;5109075;28;20052;-59
2022/05/23 01:35:40;;;;;;;0.80;0.80;;;20.10;99.90;;;;;;5111959;28;20326;-59
2022/05/23 01:38:06;;;;;;;1.02;1.00;;;20.10;99.90;;;;;;5093840;28;20113;-58
2022/05/23 01:40:32;;;;;;;1.77;0.93;;;20.10;99.90;;;;;;5093418;28;20052;-59
2022/05/23 01:42:59;;;;;;;1.30;1.10;;;20.10;99.90;;;;;;5111313;28;20090;-59
2022/05/23 01:45:37;;;;;;;1.35;1.05;;;20.10;99.90;;;;;;5108792;28;20553;-59
2022/05/23 01:48:04;;;;;;;1.40;1.00;;;20.10;99.90;;;;;;5110158;28;20060;-59
2022/05/23 01:50:30;;;;;;;0.98;0.90;;;20.10;99.90;;;;;;5110510;28;20065;-59
2022/05/23 01:52:58;;;;;;;1.23;0.93;;;20.10;99.90;;;;;;5111447;28;20435;-58
2022/05/23 01:55:24;;;;;;;0.77;0.75;;;20.10;99.90;;;;;;5111202;28;20551;-59
2022/05/23 01:57:49;;;;;;;0.80;0.80;;;20.10;99.90;;;;;;5111338;28;20079;-58
2022/05/23 02:03:00;;;;;;;1.10;1.00;;;20.10;99.90;;;;;;5110180;28;19930;-59
2022/05/23 02:05:26;;;;;;;;;;;20.10;99.90;;;;;;5110890;28;20047;-59
2022/05/23 02:07:53;;;;;;;1.52;0.90;;;20.10;99.90;;;;;;5111503;28;19920;-59
2022/05/23 02:10:19;;;;;;;1.73;1.02;;;20.10;99.90;;;;;;5110994;28;20052;-59
2022/05/23 02:12:45;;;;;;;1.65;0.90;;;20.10;99.90;;;;;;5110425;28;20120;-59
2022/05/23 02:15:11;;;;;;;;;;;20.10;99.90;;;;;;5111553;28;20520;-59
2022/05/23 02:17:37;;;;;;;1.88;1.10;;;20.10;99.90;;;;;;5110932;28;19993;-58
2022/05/23 02:20:04;;;;;;;0.80;0.80;;;20.00;99.90;;;;;;5109450;28;20492;-59
2022/05/23 02:22:30;;;;;;;0.82;0.82;;;20.10;99.90;;;;;;5092507;28;20040;-59
2022/05/23 02:24:56;;;;;;;;;;;20.10;99.90;;;;;;5111698;28;20047;-59
2022/05/23 02:27:22;;;;;;;0.80;0.80;;;20.10;99.90;;;;;;5092432;28;19972;-58
2022/05/23 02:29:47;;;;;;;;;;;20.00;99.90;;;;;;5111332;28;20046;-59
2022/05/23 02:32:14;;;;;;;2.00;0.80;;;20.10;99.90;;;;;;5110898;28;19972;-59
2022/05/23 02:34:41;;;;;;;1.75;0.90;;;20.00;99.90;;;;;;5109100;28;20050;-59
2022/05/23 02:37:08;;;;;;;1.30;0.90;;;20.10;99.90;;;;;;5111042;28;20052;-59
2022/05/23 02:39:33;;;;;;;2.15;1.10;;;20.00;99.90;;;;;;5107979;28;20260;-59
2022/05/23 02:41:59;;;;;;;;;;;20.00;99.90;;;;;;5110768;28;20527;-60
2022/05/23 02:44:24;;;;;;;1.65;1.00;;;20.00;99.90;;;;;;5110710;28;20348;-59
2022/05/23 02:46:50;;;;;;;0.95;0.90;;;20.10;99.90;;;;;;5115178;28;20047;-58
2022/05/23 02:49:16;;;;;;;;;;;20.00;99.90;;;;;;5095417;28;20134;-60
2022/05/23 02:51:41;;;;;;;1.13;0.90;;;20.00;99.90;;;;;;5114964;28;19924;-59
2022/05/23 02:54:07;;;;;;;;;;;20.00;99.90;;;;;;5115462;28;20046;-59
2022/05/23 02:56:34;;;;;;;2.08;0.98;;;20.00;99.90;;;;;;5114330;28;19920;-58
2022/05/23 02:59:00;;;;;;;0.90;0.90;;;20.00;99.90;;;;;;5114744;28;20122;-58
2022/05/23 03:01:26;;;;;;;1.30;1.00;;;20.00;99.90;;;;;;5113963;28;20055;-59
2022/05/23 03:03:51;;;;;;;;;;;20.00;99.90;;;;;;5095061;28;20052;-59
2022/05/23 03:06:17;;;;;;;1.52;1.10;;;20.00;99.90;;;;;;5114674;28;20014;-60
2022/05/23 03:08:43;;;;;;;1.17;1.08;;;20.00;99.90;;;;;;5096794;28;20043;-59
2022/05/23 03:11:08;;;;;;;;;;;20.00;99.90;;;;;;5115102;28;20139;-59
2022/05/23 03:13:35;;;;;;;1.10;1.00;;;20.00;99.90;;;;;;5113732;28;19923;-59
2022/05/23 03:16:01;;;;;;;0.88;0.88;;;20.00;99.90;;;;;;5114736;28;20093;-59
2022/05/23 03:18:28;;;;;;;0.90;0.90;;;20.00;99.90;;;;;;5112020;28;20545;-58
2022/05/23 03:20:56;;;;;;;1.35;1.00;;;20.00;99.90;;;;;;5114618;28;20055;-58
2022/05/23 03:26:58;;;;;;;1.08;0.90;;;20.00;99.90;;;;;;5113792;28;20403;-59
2022/05/23 03:29:00;;;;;;;2.75;1.13;;;20.00;99.90;;;;;;5113501;28;20047;-58
2022/05/23 03:31:27;;;;;;;1.17;1.00;;;20.00;99.90;;;;;;5113805;28;20059;-59
2022/05/23 03:33:53;;;;;;;1.30;0.80;;;20.00;99.90;;;;;;5112260;28;20044;-59
2022/05/23 03:36:20;;;;;;;0.98;0.95;;;20.00;99.90;;;;;;5095924;28;20079;-59
2022/05/23 03:38:46;;;;;;;1.17;0.90;;;20.00;99.90;;;;;;5114074;28;20046;-59
2022/05/23 03:41:11;;;;;;;;;;;20.00;99.90;;;;;;5113744;28;20055;-59
2022/05/23 03:43:38;;;;;;;2.03;0.98;;;20.00;99.90;;;;;;5112714;28;20017;-59
2022/05/23 03:46:09;;;;;;;1.10;0.82;;;20.00;99.90;;;;;;5114159;28;20399;-59
2022/05/23 03:48:35;;;;;;;0.80;0.80;;;20.00;99.90;;;;;;5091255;28;20043;-59
2022/05/23 03:51:01;;;;;;;1.67;1.10;;;20.00;99.90;;;;;;5075400;28;20141;-59
2022/05/23 03:53:28;;;;;;;1.30;1.20;;;20.00;99.90;;;;;;5092916;28;20476;-58
2022/05/23 03:55:55;;;;;;;0.82;0.80;;;20.00;99.90;;;;;;5092981;28;20103;-58
2022/05/23 03:58:21;;;;;;;0.90;0.80;;;20.00;99.90;;;;;;5092475;28;20054;-59
2022/05/23 04:00:49;;;;;;;;;;;20.00;99.90;;;;;;5082922;28;20546;-59
2022/05/23 04:03:16;;;;;;;0.85;0.85;;;20.00;99.90;;;;;;5111166;28;19982;-59
2022/05/23 04:05:42;;;;;;;0.95;0.90;;;20.00;99.90;;;;;;5113127;28;20054;-59
2022/05/23 04:08:09;;;;;;;0.90;0.90;;;20.00;99.90;;;;;;5093010;28;20397;-59
2022/05/23 04:10:35;;;;;;;1.20;0.93;;;20.00;99.90;;;;;;5092578;28;20138;-59
2022/05/23 04:13:02;;;;;;;;;;;20.00;99.90;;;;;;5092754;28;20159;-59
2022/05/23 04:15:28;;;;;;;;;;;20.00;99.90;;;;;;5100313;28;19924;-59
2022/05/23 04:17:54;;;;;;;0.80;0.80;;;20.00;99.90;;;;;;5112608;28;19923;-59
2022/05/23 04:20:20;;;;;;;1.25;1.15;;;20.00;99.90;;;;;;5112522;28;20055;-59
2022/05/23 04:22:46;;;;;;;1.70;1.00;;;20.00;99.90;;;;;;5112691;28;20048;-59
2022/05/23 04:25:12;;;;;;;;;;;20.00;99.90;;;;;;5111439;28;20126;-58
2022/05/23 04:27:37;;;;;;;1.70;1.10;;;20.00;99.90;;;;;;5112513;28;19923;-59
2022/05/23 04:30:04;;;;;;;;;;;20.00;99.90;;;;;;5113084;28;20182;-59
2022/05/23 04:35:15;;;;;;;0.65;0.65;;;20.00;99.90;;;;;;5112178;28;20113;-59
2022/05/23 04:37:44;;;;;;;;;;;20.00;99.90;;;;;;5112538;28;20055;-59
2022/05/23 04:40:12;;;;;;;0.77;0.77;;;20.00;99.90;;;;;;5112710;28;19920;-59
2022/05/23 04:42:38;;;;;;;0.90;0.90;;;20.00;99.90;;;;;;5112262;28;20040;-59
2022/05/23 04:45:04;;;;;;;;;;;20.00;99.90;;;;;;5112436;28;20040;-59
2022/05/23 04:50:14;;;;;;;1.35;1.00;;;20.00;99.90;;;;;;5111948;28;20178;-59
2022/05/23 04:52:40;;;;;;;;;;;20.00;99.90;;;;;;5112390;28;20126;-59
2022/05/23 04:55:08;;;;;;;1.85;1.00;;;20.00;99.90;;;;;;5112812;28;19931;-58
2022/05/23 04:57:34;;;;;;;1.17;1.02;;;20.00;99.90;;;;;;5093840;28;20054;-59
2022/05/23 05:00:01;;;;;;;1.20;1.00;;;20.00;99.90;;;;;;5111477;28;20040;-59
2022/05/23 05:02:26;;;;;;;1.42;0.98;;;20.00;99.90;;;;;;5111674;28;20135;-59
2022/05/23 05:04:52;;;;;;;;;;;20.00;99.90;;;;;;5110575;28;20135;-59
2022/05/23 05:07:17;;;;;;;1.23;0.90;;;20.00;99.90;;;;;;5077104;28;20269;-60
2022/05/23 05:09:43;;;;;;;;;;;20.00;99.90;;;;;;5110352;28;20144;-59
2022/05/23 05:12:09;;;;;;;1.23;0.90;;;20.00;99.90;;;;;;5112240;28;19980;-59
2022/05/23 05:14:34;;;;;;;;;;;20.00;99.90;;;;;;5112011;28;20052;-60
2022/05/23 05:17:01;;;;;;;1.42;0.90;;;20.00;99.90;;;;;;5112289;28;19971;-59
2022/05/23 05:19:27;;;;;;;1.45;1.08;;;20.00;99.90;;;;;;5110294;28;20035;-59
2022/05/23 05:21:53;;;;;;;2.17;1.08;;;20.00;99.90;;;;;;5111285;28;20051;-59
2022/05/23 05:24:19;;;;;;;1.00;0.98;;;20.00;99.90;;;;;;5112134;28;20055;-59
2022/05/23 05:26:44;;;;;;;;;;;20.00;99.90;;;;;;5112001;28;20096;-59
2022/05/23 05:29:11;;;;;;;0.85;0.85;;;20.00;99.90;;;;;;5111786;28;20018;-58
2022/05/23 05:31:49;;;;;;;0.98;0.93;;;20.00;99.90;;;;;;5108983;28;20043;-59
2022/05/23 05:34:25;;;;;;;1.80;1.05;;;20.00;99.90;;;;;;5109948;28;20047;-59
2022/05/23 05:36:54;;;;;;;0.85;0.85;;;20.00;99.90;;;;;;5111388;28;20052;-59
2022/05/23 05:39:23;;;;;;;1.33;1.10;;;20.00;99.90;;;;;;5093976;28;20456;-58
2022/05/23 05:41:57;;;;;;;1.42;1.20;;;20.00;99.90;;;;;;5111209;28;20075;-58
2022/05/23 05:44:30;;;;;;;1.17;1.05;;;20.00;99.90;;;;;;5111502;28;20051;-59
2022/05/23 05:46:59;;;;;;;2.30;0.80;;;20.00;99.90;;;;;;5093160;28;20596;-59
2022/05/23 05:49:28;;;;;;;1.13;0.93;;;20.10;99.90;;;;;;5109425;28;20043;-59
2022/05/23 05:52:01;;;;;;;1.13;0.98;;;20.00;99.90;;;;;;5111021;28;20051;-59
2022/05/23 05:54:29;;;;;;;0.80;0.80;;;20.10;99.90;;;;;;5111654;28;20107;-59
2022/05/23 05:56:57;;;;;;;0.77;0.77;;;20.10;99.90;;;;;;5092961;28;20051;-59
2022/05/23 05:59:23;;;;;;;0.70;0.70;;;20.10;99.90;;;;;;5111169;28;20051;-59
2022/05/23 06:01:49;;;;;;;0.93;0.90;;;20.10;99.90;;;;;;5110042;28;20446;-59
2022/05/23 06:04:15;;;;;;;;;;;20.10;99.90;;;;;;5105347;28;20119;-59
2022/05/23 06:12:09;;;;;;;1.00;0.98;;;20.10;99.90;;;;;;5111189;28;20105;-59
2022/05/23 06:14:35;;;;;;;;;;;20.10;99.90;;;;;;5082215;28;20056;-58
2022/05/23 06:17:01;;;;;;;0.80;0.80;;;20.10;99.90;;;;;;5090450;28;20201;-58
2022/05/23 06:19:26;;;;;;;;;;;20.10;99.90;;;;;;5098565;28;20043;-58
2022/05/23 06:21:52;;;;;;;0.73;0.70;;;20.10;99.90;;;;;;5110665;28;19923;-71
2022/05/23 06:24:18;;;;;;;;;;;20.10;99.90;;;;;;5093535;28;20075;-58
2022/05/23 06:26:44;;;;;;;1.13;0.90;;;20.10;99.90;;;;;;5109847;28;19930;-59
2022/05/23 06:29:10;;;;;;;;;;;20.10;99.90;;;;;;5110868;28;20043;-59
2022/05/23 06:31:35;;;;;;;0.88;0.88;;;20.10;99.90;;;;;;5106321;28;20636;-59
2022/05/23 06:34:01;;;;;;;;;;;20.20;99.90;;;;;;5108830;28;20797;-58
2022/05/23 06:36:27;;;;;;;1.63;1.02;;;20.10;99.90;;;;;;5111048;28;19926;-57
2022/05/23 06:38:53;;;;;;;0.80;0.80;;;20.20;99.90;;;;;;5108104;28;20040;-59
2022/05/23 06:41:18;;;;;;;1.67;1.10;;;20.20;99.90;;;;;;5111005;28;20050;-59
2022/05/23 06:43:45;;;;;;;1.65;0.90;;;20.20;99.90;;;;;;5110258;28;20036;-65
2022/05/23 06:46:13;;;;;;;1.65;1.13;;;20.20;99.90;;;;;;5111104;28;20402;-59
2022/05/23 06:48:39;;;;;;;0.80;0.80;;;20.20;99.90;;;;;;5091386;28;20044;-59
2022/05/23 06:51:05;;;;;;;;;;;20.20;99.90;;;;;;5092529;28;20123;-59
2022/05/23 06:53:31;;;;;;;0.85;0.82;;;20.20;99.90;;;;;;5104026;28;19920;-59
2022/05/23 06:55:57;;;;;;;0.98;0.90;;;20.20;99.90;;;;;;5101537;28;20036;-59
2022/05/23 06:58:23;;;;;;;;;;;20.20;99.90;;;;;;5067240;28;20047;-59
2022/05/23 07:00:49;;;;;;;1.23;0.85;;;20.20;99.90;;;;;;5108396;28;19942;-59
2022/05/23 07:03:15;;;;;;;1.63;0.90;;;20.20;99.90;;;;;;5107248;28;20042;-59
2022/05/23 07:13:55;;;;;;;0.90;0.90;;;20.20;99.90;;;;;;5105902;28;20138;-59
2022/05/23 07:16:22;;;;;;;;;;;20.30;99.90;;;;;;5084436;28;20134;-60
2022/05/23 07:18:47;;;;;;;0.88;0.88;;;20.30;99.90;;;;;;5108386;28;19991;-58
2022/05/23 07:21:13;;;;;;;;;;;20.30;99.90;;;;;;5111100;28;20043;-58
2022/05/23 07:23:39;;;;;;;3.78;1.60;;;20.30;99.90;;;;;;5100996;28;20217;-59
2022/05/23 07:26:07;;;;;;;3.70;1.45;;;20.30;99.90;;;;;;5101297;28;20104;-59
2022/05/23 07:28:32;;;;;;;2.17;1.30;;;20.30;99.90;;;;;;5110234;28;20040;-60
2022/05/23 07:30:58;;;;;;;;;;;20.30;99.90;;;;;;5092338;28;20054;-59
2022/05/23 07:33:24;;;;;;;3.08;1.75;;;20.30;99.90;;;;;;5108027;28;20389;-59
2022/05/23 07:35:57;;;;;;;6.05;1.58;;;20.30;99.90;;;;;;5113675;28;20044;-59
2022/05/23 07:38:24;;;;;;;1.92;1.50;;;20.30;99.90;;;;;;5114073;28;20043;-59
2022/05/23 07:40:51;;;;;;;3.88;1.67;;;20.30;99.90;;;;;;5111062;28;20048;-57
2022/05/23 07:43:18;;;;;;;3.25;1.70;;;20.40;99.90;;;;;;5112635;28;20059;-68
2022/05/23 07:45:44;;;;;;;3.30;1.83;;;20.40;99.90;;;;;;5112353;28;20051;-67
2022/05/23 07:48:09;;;;;;;;;;;20.50;99.90;;;;;;5109194;28;20050;-70
2022/05/23 07:50:36;;;;;;;5.57;2.05;;;20.50;99.90;;;;;;5112730;28;20015;-67
2022/05/23 08:01:15;;;;;;;5.35;2.20;;;20.60;99.40;;;;;;5104119;28;20085;-68
2022/05/23 08:03:41;;;;;;;;;;;20.60;99.40;;;;;;5091842;28;20048;-68
2022/05/23 08:06:09;;;;;;;3.95;1.95;;;20.60;99.40;;;;;;5092768;28;20006;-70
2022/05/23 08:08:35;;;;;;;4.68;1.85;;;20.60;99.40;;;;;;5113264;28;20056;-66
2022/05/23 08:11:01;;;;;;;;;;;20.60;99.40;;;;;;5113564;28;20048;-67
2022/05/23 08:13:27;;;;;;;3.17;1.77;;;20.60;99.60;;;;;;5091025;28;19923;-67
2022/05/23 08:15:52;;;;;;;3.42;1.80;;;20.60;99.60;;;;;;5092353;28;20050;-66
2022/05/23 08:18:18;;;;;;;;;;;20.60;99.50;;;;;;5091439;28;20060;-67
2022/05/23 08:20:44;;;;;;;3.92;1.90;;;20.70;99.70;;;;;;5093053;28;19958;-67
2022/05/23 08:23:11;;;;;;;2.58;1.77;;;20.70;99.60;;;;;;5092410;28;20071;-67
2022/05/23 08:25:37;;;;;;;5.25;3.00;;;20.70;99.70;;;;;;5092974;28;20047;-67
2022/05/23 08:28:03;;;;;;;2.35;1.73;;;20.70;99.80;;;;;;5098423;28;20036;-67
2022/05/23 08:30:29;;;;;;;;;;;20.70;99.90;;;;;;5107134;28;20051;-64
2022/05/23 08:32:55;;;;;;;3.17;1.90;;;20.70;99.90;;;;;;5090223;28;20007;-64
2022/05/23 08:35:23;;;;;;;;;;;20.70;99.90;;;;;;5091856;28;20119;-67
2022/05/23 08:37:52;;;;;;;4.10;1.90;;;20.70;99.90;;;;;;5108204;28;19942;-67
2022/05/23 08:40:17;;;;;;;3.78;2.03;;;20.70;99.90;;;;;;5112363;28;20044;-67
2022/05/23 08:42:56;;;;;;;;;;;20.70;99.90;;;;;;5112867;28;20043;-67
2022/05/23 08:45:34;;;;;;;5.15;1.92;;;20.80;99.90;;;;;;5112377;28;19979;-67
2022/05/23 08:48:23;;;;;;;3.92;1.60;;;20.80;99.90;;;;;;5111375;28;20082;-68
2022/05/23 08:51:04;;;;;;;4.07;1.73;;;21.10;99.90;;;;;;5102660;28;20039;-67
2022/05/23 08:53:42;;;;;;;2.63;1.67;;;20.70;99.90;;;;;;5102767;28;20074;-67
2022/05/23 08:56:18;;;;;;;2.88;1.88;;;20.70;99.90;;;;;;5107264;28;20079;-67
2022/05/23 08:58:52;;;;;;;2.70;1.67;;;20.80;99.90;;;;;;5105876;28;20047;-67
2022/05/23 09:01:23;;;;;;;2.85;1.52;;;20.70;99.90;;;;;;5074318;28;20495;-67
2022/05/23 09:03:57;;;;;;;5.45;2.00;;;20.70;99.90;;;;;;5090273;28;20044;-67
2022/05/23 09:06:32;;;;;;;5.25;1.63;;;20.70;99.90;;;;;;5101197;28;20162;-67
2022/05/23 09:09:01;;;;;;;4.72;2.10;;;20.70;99.90;;;;;;5110554;28;20369;-67
2022/05/23 09:11:36;;;;;;;2.40;1.70;;;20.70;99.90;;;;;;5111948;28;20048;-67
2022/05/23 09:14:04;;;;;;;2.75;1.80;;;20.70;99.90;;;;;;5103837;28;20059;-67
2022/05/23 09:16:40;;;;;;;5.07;1.80;;;20.70;99.90;;;;;;5097926;28;20059;-67
2022/05/23 09:19:43;;;;;;;3.58;1.60;;;20.70;99.90;;;;;;5089642;28;20435;-67
2022/05/23 09:22:13;;;;;;;3.55;1.85;;;20.70;99.90;;;;;;5097695;28;20047;-67
2022/05/23 09:24:45;;;;;;;3.45;1.70;;;20.70;99.90;;;;;;5112186;28;20047;-65
2022/05/23 09:27:27;;;;;;;3.10;1.90;;;20.70;99.90;;;;;;5111401;28;20051;-67
2022/05/23 09:29:56;;;;;;;2.63;1.70;;;20.70;99.90;;;;;;5109481;28;20086;-64
2022/05/23 09:32:27;;;;;;;3.50;1.83;;;20.70;99.90;;;;;;5110770;28;20039;-68
2022/05/23 09:35:14;;;;;;;4.15;1.80;;;20.70;99.90;;;;;;5106647;28;20055;-66
2022/05/23 09:37:43;;;;;;;4.05;1.90;;;20.80;99.90;;;;;;5088832;28;20043;-71
2022/05/23 09:40:24;;;;;;;4.25;2.00;;;20.80;99.90;;;;;;5092655;28;20069;-70
2022/05/23 09:48:24;;;;;;;2.90;1.95;;;20.90;99.90;;;;;;5089217;28;20071;-70
2022/05/23 09:50:59;;;;;;;4.25;1.67;;;20.90;99.90;;;;;;5091532;28;20040;-70
2022/05/23 09:53:30;;;;;;;3.28;1.83;;;20.90;99.90;;;;;;5091064;28;20113;-70
2022/05/23 09:56:23;;;;;;;3.85;1.67;;;20.90;99.90;;;;;;5091073;28;20354;-70
2022/05/23 09:58:50;;;;;;;2.67;1.48;;;20.90;99.90;;;;;;5100591;28;20058;-70
2022/05/23 10:01:29;;;;;;;4.03;1.90;;;20.90;99.90;;;;;;5111044;28;20039;-70
2022/05/23 10:03:56;;;;;;;4.38;1.67;;;20.90;99.90;;;;;;5109694;28;20196;-70
2022/05/23 10:06:34;;;;;;;6.97;1.88;;;20.90;99.90;;;;;;5110334;28;20585;-69
2022/05/23 10:09:00;;;;;;;2.40;1.65;;;20.90;99.90;;;;;;5098928;28;20043;-67
2022/05/23 10:11:30;;;;;;;;;;;21.00;99.70;;;;;;5099849;28;20166;-67
2022/05/23 10:14:00;;;;;;;2.20;1.63;;;21.00;99.10;;;;;;5094205;28;19949;-67
2022/05/23 10:16:42;;;;;;;2.92;1.52;;;20.80;99.00;;;;;;5090984;28;20105;-67
2022/05/23 10:19:09;;;;;;;3.35;1.65;;;21.10;98.80;;;;;;5088916;28;20056;-67
2022/05/23 10:21:43;;;;;;;2.92;1.45;;;21.20;98.50;;;;;;5096145;28;20105;-67
2022/05/23 10:24:24;;;;;;;1.77;1.40;;;21.30;98.30;;;;;;5102077;28;20039;-67
2022/05/23 10:26:57;;;;;;;2.47;1.30;;;21.30;98.10;;;;;;5080780;28;20136;-66
2022/05/23 10:29:52;;;;;;;2.08;1.55;;;21.30;98.00;;;;;;5096622;28;20074;-67
2022/05/23 10:32:45;;;;;;;4.18;1.48;;;21.40;97.90;;;;;;5099355;28;20500;-67
2022/05/23 10:35:16;;;;;;;2.15;1.40;;;21.40;97.70;;;;;;5087339;28;20112;-67
2022/05/23 10:37:44;;;;;;;2.88;1.60;;;21.40;97.60;;;;;;5100529;28;20074;-67
2022/05/23 10:43:21;;;;;;;3.28;1.50;;;21.40;97.50;;;;;;5102927;28;20039;-67
2022/05/23 10:45:52;;;;;;;2.05;1.25;;;21.50;97.40;;;;;;5091434;28;20519;-67
2022/05/23 10:48:50;;;;;;;3.00;1.58;;;21.50;97.40;;;;;;5078522;28;20109;-67
2022/05/23 10:51:25;;;;;;;3.00;1.70;;;21.50;97.40;;;;;;5077327;28;20063;-67
2022/05/23 10:54:03;;;;;;;2.90;1.48;;;21.50;97.40;;;;;;5107260;28;20055;-67
2022/05/23 10:56:55;;;;;;;2.42;1.70;;;21.50;97.60;;;;;;5108372;28;20047;-68
2022/05/23 10:59:35;;;;;;;1.42;1.25;;;21.50;97.50;;;;;;5088936;28;20123;-67
2022/05/23 11:02:04;;;;;;;1.67;1.30;;;21.50;97.30;;;;;;5088465;28;20066;-67
2022/05/23 11:04:35;;;;;;;1.23;1.13;;;21.50;97.30;;;;;;5103594;28;20051;-67
2022/05/23 11:07:51;;;;;;;1.98;1.30;;;21.50;97.30;;;;;;5109039;28;20046;-67
2022/05/23 11:10:34;;;;;;;2.03;1.33;;;21.50;97.30;;;;;;5046090;28;20066;-67
2022/05/23 11:13:17;;;;;;;1.45;1.20;;;21.50;97.40;;;;;;5110459;28;20063;-67
2022/05/23 11:16:04;;;;;;;1.98;1.35;;;21.50;97.40;;;;;;5108725;28;20048;-68
2022/05/23 11:18:45;;;;;;;1.52;1.30;;;21.50;97.40;;;;;;5110048;28;20058;-67
2022/05/23 11:21:18;;;;;;;1.60;1.30;;;21.50;97.40;;;;;;5112110;28;20075;-67
2022/05/23 11:23:48;;;;;;;4.05;1.70;;;21.50;97.40;;;;;;5109652;28;20069;-67
2022/05/23 11:26:30;;;;;;;1.65;1.30;;;21.50;97.40;;;;;;5109159;28;20113;-67
2022/05/23 11:34:44;;;;;;;2.17;1.40;;;21.50;97.10;;;;;;5091537;28;20047;-67
2022/05/23 11:40:10;;;;;;;3.63;1.60;;;21.50;97.00;;;;;;5093814;28;20056;-67
2022/05/23 11:42:35;;;;;;;2.88;1.60;;;21.50;97.30;;;;;;5093544;28;20039;-67
2022/05/23 11:47:56;;;;;;;2.72;1.40;;;21.50;97.10;;;;;;5105516;28;20421;-67
2022/05/23 11:50:34;;;;;;;1.73;1.38;;;21.50;97.20;;;;;;5111854;28;20118;-67
2022/05/23 11:53:09;;;;;;;1.75;1.40;;;21.50;97.10;;;;;;5102098;28;20101;-69
2022/05/23 11:55:55;;;;;;;3.40;1.50;;;21.50;97.20;;;;;;5102925;28;20050;-66
2022/05/23 11:58:48;;;;;;;2.63;1.48;;;21.50;97.20;;;;;;5101947;28;20119;-66
2022/05/23 12:01:14;;;;;;;2.67;1.60;;;21.50;97.20;;;;;;5091497;28;20063;-67
2022/05/23 12:03:52;;;;;;;;;;;21.50;97.20;;;;;;5096227;28;20481;-67
2022/05/23 12:06:19;;;;;;;;;;;21.50;97.30;;;;;;5105423;28;21077;-66
2022/05/23 12:09:05;;;;;;;2.33;1.50;;;21.50;97.50;;;;;;5108521;28;20378;-71
2022/05/23 12:11:35;;;;;;;2.92;1.63;;;21.50;97.60;;;;;;5084748;28;20521;-69
2022/05/23 12:14:21;;;;;;;2.00;1.40;;;21.50;97.50;;;;;;5105884;28;20063;-69
2022/05/23 12:16:49;;;;;;;5.20;1.90;;;21.50;97.50;;;;;;5101679;28;20128;-69
2022/05/23 12:19:24;;;;;;;3.42;1.70;;;21.50;97.40;;;;;;5110697;28;20122;-69
2022/05/23 12:21:51;;;;;;;3.47;1.70;;;21.60;97.20;;;;;;5092990;28;20370;-69
2022/05/23 12:24:27;;;;;;;1.55;1.42;;;21.50;97.10;;;;;;5112399;28;20071;-69
2022/05/23 12:26:56;;;;;;;2.15;1.60;;;21.60;97.00;;;;;;5113112;28;20051;-69
2022/05/23 12:29:31;;;;;;;2.22;1.60;;;21.50;97.00;;;;;;5099735;28;20520;-69
2022/05/23 12:32:25;;;;;;;2.67;1.90;;;21.50;97.10;;;;;;5112631;28;20554;-69
2022/05/23 12:34:54;;;;;;;4.22;1.75;;;21.50;97.00;;;;;;5110154;28;20048;-69
2022/05/23 12:38:03;;;;;;;1.50;1.40;;;21.50;97.20;;;;;;5112470;28;20051;-69
2022/05/23 12:40:31;;;;;;;1.75;1.52;;;21.50;97.10;;;;;;5063826;28;20051;-69
2022/05/23 12:43:15;;;;;;;2.42;1.65;;;21.50;97.30;;;;;;5109670;28;20062;-69
2022/05/23 12:46:18;;;;;;;2.50;1.88;;;21.40;97.20;;;;;;5109973;28;20097;-69
2022/05/23 12:48:52;;;;;;;2.55;1.70;;;21.40;97.30;;;;;;5108528;28;20074;-68
2022/05/23 12:51:44;;;;;;;2.08;1.67;;;21.40;97.40;;;;;;5110335;28;20552;-69
2022/05/23 12:54:21;;;;;;;2.25;1.63;;;21.40;97.40;;;;;;5108347;28;20035;-69
2022/05/23 12:57:01;;;;;;;2.38;1.73;;;21.30;97.40;;;;;;5110623;28;20100;-69
2022/05/23 12:59:50;;;;;;;2.70;1.83;;;21.40;97.50;;;;;;5109932;28;20749;-68
2022/05/23 13:02:39;;;;;;;2.47;1.92;;;21.40;97.60;;;;;;5109118;28;20446;-68
2022/05/23 13:05:14;;;;;;;3.35;1.80;;;21.30;97.60;;;;;;5108282;28;20044;-69
2022/05/23 13:08:01;;;;;;;3.42;1.67;;;21.30;97.70;;;;;;5102090;28;20126;-69
2022/05/23 13:10:31;;;;;;;1.67;1.58;;;21.30;97.80;;;;;;5091082;28;20723;-70
2022/05/23 13:13:11;;;;;;;2.88;1.70;;;21.30;97.80;;;;;;5110747;28;20056;-70
2022/05/23 13:15:37;;;;;;;2.53;1.80;;;21.30;97.90;;;;;;5108933;28;20143;-67
2022/05/23 13:23:36;;;;;;;2.38;1.77;;;21.30;98.10;;;;;;5110326;28;20047;-68
2022/05/23 13:26:10;;;;;;;2.70;1.60;;;21.30;98.20;;;;;;5109667;28;20086;-69
2022/05/23 13:28:41;;;;;;;1.88;1.58;;;21.30;98.20;;;;;;5108765;28;20047;-67
2022/05/23 13:31:23;;;;;;;3.05;1.75;;;21.30;98.30;;;;;;5109806;28;20241;-68
2022/05/23 13:33:49;;;;;;;5.47;1.80;;;21.30;98.40;;;;;;5089886;28;20757;-68
2022/05/23 13:36:14;;;;;;;;;;;21.30;98.40;;;;;;5111049;28;20046;-67
2022/05/23 13:38:43;;;;;;;1.90;1.42;;;21.30;98.70;;;;;;5110229;28;19927;-67
2022/05/23 13:41:26;;;;;;;2.60;1.70;;;21.30;98.60;;;;;;5110193;28;20055;-67
2022/05/23 13:43:51;;;;;;;2.17;1.60;;;21.20;98.70;;;;;;5110444;28;20040;-67
2022/05/23 13:46:20;;;;;;;;;;;21.30;98.70;;;;;;5111060;28;20059;-67
2022/05/23 13:48:49;;;;;;;1.95;1.52;;;21.20;99.00;;;;;;5108455;28;19925;-68
2022/05/23 13:51:27;;;;;;;2.78;1.73;;;21.20;98.80;;;;;;5110069;28;20051;-68
2022/05/23 13:54:04;;;;;;;4.97;1.90;;;21.20;98.90;;;;;;5092224;28;20157;-67
2022/05/23 13:56:30;;;;;;;3.53;1.90;;;21.20;98.90;;;;;;5109819;28;20047;-67
2022/05/23 13:58:59;;;;;;;;;;;21.20;98.90;;;;;;5110538;28;20058;-68
2022/05/23 14:01:31;;;;;;;2.30;1.60;;;21.20;99.20;;;;;;5109828;28;19919;-67
2022/05/23 14:04:06;;;;;;;4.05;1.88;;;21.20;99.10;;;;;;5108367;28;20370;-67
2022/05/23 14:06:36;;;;;;;2.13;1.70;;;21.20;99.10;;;;;;5091673;28;20046;-67
2022/05/23 14:09:06;;;;;;;2.22;1.60;;;21.20;99.10;;;;;;5110153;28;20130;-68
2022/05/23 14:11:45;;;;;;;2.15;1.50;;;21.20;99.20;;;;;;5109656;28;20055;-67
2022/05/23 14:14:16;;;;;;;4.53;1.73;;;21.20;99.20;;;;;;5109292;28;20472;-68
2022/05/23 14:16:56;;;;;;;3.13;1.70;;;21.20;99.30;;;;;;5091238;28;20061;-68
2022/05/23 14:19:50;;;;;;;2.70;1.80;;;21.20;99.60;;;;;;5108305;28;20058;-68